Time;durP1;ratioP1;P1;durP2;ratioP2;P2;SDS_P1;SDS_P2;PMS_P1;PMS_P2;Temp;Humidity;BMP_temperature;BMP_pressure;BME280_temperature;BME280_humidity;BME280_pressure;Samples;Min_cycle;Max_cycle;Signal;HPM_P1;HPM_P2
2023/10/13 00:00:36;;;;;;;6.70;4.40;;;18.70;99.90;;;19.12;nan;100587.78;4918163;29;21269;-67
2023/10/13 00:03:05;;;;;;;6.50;4.00;;;18.70;99.90;;;19.11;nan;100591.41;4927893;29;20646;-68
2023/10/13 00:05:34;;;;;;;7.23;4.20;;;18.70;99.90;;;19.06;nan;100591.91;4908024;29;20725;-67
2023/10/13 00:08:03;;;;;;;10.00;3.87;;;18.70;99.90;;;19.05;nan;100594.72;4913595;29;20665;-68
2023/10/13 00:10:31;;;;;;;6.90;3.67;;;18.60;99.90;;;19.00;nan;100597.03;4905208;29;20647;-68
2023/10/13 00:13:15;;;;;;;4.43;3.03;;;18.60;99.90;;;18.98;nan;100599.00;4909444;29;20666;-68
2023/10/13 00:15:57;;;;;;;7.33;3.53;;;18.60;99.90;;;18.99;nan;100604.16;4915429;29;20630;-68
2023/10/13 00:18:33;;;;;;;4.00;3.10;;;18.60;99.90;;;18.99;nan;100595.41;4912572;29;20661;-68
2023/10/13 00:21:15;;;;;;;3.70;3.20;;;18.60;99.90;;;18.95;nan;100602.81;4913247;29;20629;-68
2023/10/13 00:23:53;;;;;;;3.60;2.80;;;18.50;99.90;;;18.94;nan;100595.88;4912337;29;20638;-69
2023/10/13 00:26:28;;;;;;;5.03;3.40;;;18.50;99.90;;;18.95;nan;100602.81;4929931;29;20642;-68
2023/10/13 00:29:01;;;;;;;9.93;4.10;;;18.50;99.90;;;18.92;nan;100589.94;4909300;29;20665;-68
2023/10/13 00:31:33;;;;;;;7.00;4.37;;;18.50;99.90;;;18.89;nan;100586.81;4910564;29;21050;-68
2023/10/13 00:34:05;;;;;;;3.40;2.80;;;18.40;99.90;;;18.89;nan;100589.44;4911907;29;20676;-67
2023/10/13 00:36:34;;;;;;;9.80;3.57;;;18.50;99.90;;;18.92;nan;100594.38;4896588;29;20696;-68
2023/10/13 00:39:03;;;;;;;3.60;2.63;;;18.50;99.90;;;18.92;nan;100591.75;4898366;29;20665;-68
2023/10/13 00:44:16;;;;;;;4.40;3.10;;;18.50;99.90;;;18.88;nan;100593.06;4910388;29;21345;-68
2023/10/13 00:46:45;;;;;;;3.70;2.87;;;18.50;99.90;;;18.89;nan;100592.91;4912220;29;21231;-68
2023/10/13 00:49:15;;;;;;;6.23;2.53;;;18.40;99.90;;;18.89;nan;100589.44;4893406;29;20681;-68
2023/10/13 00:51:47;;;;;;;2.97;2.67;;;18.40;99.90;;;18.87;nan;100580.84;4910804;29;20643;-67
2023/10/13 00:54:18;;;;;;;5.10;2.73;;;18.40;99.90;;;18.86;nan;100585.31;4920639;29;20710;-68
2023/10/13 00:56:57;;;;;;;8.43;4.03;;;18.40;99.90;;;18.86;nan;100579.19;4926409;29;20646;-68
2023/10/13 00:59:25;;;;;;;5.27;3.33;;;18.40;99.90;;;18.82;nan;100578.69;4921996;29;21247;-68
2023/10/13 01:01:55;;;;;;;6.33;3.43;;;18.40;99.90;;;18.79;nan;100575.53;4909140;29;20642;-68
2023/10/13 01:04:27;;;;;;;4.40;3.20;;;18.40;99.90;;;18.77;nan;100569.59;4913246;29;20681;-68
2023/10/13 01:06:54;;;;;;;3.67;3.33;;;18.40;99.90;;;18.81;nan;100565.63;4896687;29;21031;-68
2023/10/13 01:09:24;;;;;;;5.20;3.17;;;18.40;99.90;;;18.81;nan;100565.63;4910481;29;20715;-68
2023/10/13 01:11:52;;;;;;;4.17;2.80;;;18.40;99.90;;;18.80;nan;100561.34;4913239;29;21195;-67
2023/10/13 01:14:20;;;;;;;5.70;3.13;;;18.40;99.90;;;18.78;nan;100563.34;4908238;29;20678;-68
2023/10/13 01:16:52;;;;;;;7.23;3.50;;;18.30;99.90;;;18.75;nan;100551.25;4913061;29;20649;-68
2023/10/13 01:19:24;;;;;;;5.87;3.43;;;18.30;99.90;;;18.75;nan;100550.44;4904325;29;20674;-67
2023/10/13 01:22:03;;;;;;;4.20;3.30;;;18.30;99.90;;;18.77;nan;100546.63;4912144;29;20718;-67
2023/10/13 01:24:34;;;;;;;7.83;3.77;;;18.30;99.90;;;18.75;nan;100550.44;4910629;29;21271;-68
2023/10/13 01:27:16;;;;;;;5.20;3.20;;;18.30;99.90;;;18.73;nan;100542.69;4917487;29;20650;-68
2023/10/13 01:29:48;;;;;;;3.20;2.87;;;18.30;99.90;;;18.69;nan;100543.16;4919071;29;20697;-67
2023/10/13 01:32:23;;;;;;;8.57;3.63;;;18.30;99.90;;;18.70;nan;100539.53;4911751;29;20678;-68
2023/10/13 01:34:55;;;;;;;5.23;3.67;;;18.30;99.90;;;18.69;nan;100525.50;4906190;29;20637;-68
2023/10/13 01:37:22;;;;;;;5.47;3.57;;;18.20;99.90;;;18.70;nan;100535.06;4913888;29;20621;-68
2023/10/13 01:39:50;;;;;;;4.93;3.20;;;18.30;99.90;;;18.72;nan;100532.28;4911225;29;21175;-69
2023/10/13 01:42:21;;;;;;;4.20;3.10;;;18.30;99.90;;;18.69;nan;100536.06;4909439;29;20684;-66
2023/10/13 01:44:49;;;;;;;6.73;3.20;;;18.30;99.90;;;18.68;nan;100526.47;4921699;29;20650;-67
2023/10/13 01:47:16;;;;;;;5.90;3.53;;;18.20;99.90;;;18.68;nan;100523.00;4912679;29;20626;-69
2023/10/13 01:49:47;;;;;;;3.33;2.97;;;18.30;99.90;;;18.68;nan;100517.72;4905202;29;20637;-69
2023/10/13 01:52:15;;;;;;;3.47;2.83;;;18.30;99.90;;;18.65;nan;100526.00;4921124;29;20645;-68
2023/10/13 01:54:44;;;;;;;4.60;3.00;;;18.20;99.90;;;18.65;nan;100515.41;4921202;29;21022;-67
2023/10/13 01:57:17;;;;;;;8.70;4.00;;;18.20;99.90;;;18.63;nan;100525.31;4919766;29;20688;-68
2023/10/13 01:59:48;;;;;;;4.23;3.57;;;18.20;99.90;;;18.64;nan;100516.38;4908482;29;21211;-68
2023/10/13 02:02:28;;;;;;;5.27;3.30;;;18.20;99.90;;;18.64;nan;100516.38;4896714;29;20649;-68
2023/10/13 02:05:02;;;;;;;3.97;3.30;;;18.20;99.90;;;18.66;nan;100509.13;4896931;29;20642;-67
2023/10/13 02:07:34;;;;;;;12.33;4.27;;;18.20;99.90;;;18.67;nan;100516.06;4912897;29;20657;-68
2023/10/13 02:10:05;;;;;;;5.03;4.13;;;18.30;99.90;;;18.65;nan;100513.59;4905185;29;20631;-67
2023/10/13 02:12:44;;;;;;;6.37;3.60;;;18.20;99.90;;;18.65;nan;100507.50;4910195;29;20646;-68
2023/10/13 02:15:21;;;;;;;6.00;3.20;;;18.20;99.90;;;18.65;nan;100507.50;4906540;29;21183;-68
2023/10/13 02:17:51;;;;;;;3.27;2.97;;;18.20;99.90;;;18.63;nan;100506.81;4910591;29;20646;-68
2023/10/13 02:20:22;;;;;;;1.87;1.70;;;18.20;99.90;;;18.63;nan;100502.38;4911799;29;20634;-67
2023/10/13 02:22:49;;;;;;;5.00;3.27;;;18.20;99.90;;;18.59;nan;100499.22;4922383;29;20651;-67
2023/10/13 02:25:35;;;;;;;6.23;3.60;;;18.20;99.90;;;18.56;nan;100515.41;4910104;29;20634;-67
2023/10/13 02:28:07;;;;;;;3.03;2.77;;;18.10;99.90;;;18.52;nan;100515.91;4926577;29;20737;-68
2023/10/13 02:30:48;;;;;;;3.80;3.40;;;18.10;99.90;;;18.52;nan;100502.69;4916993;29;20644;-67
2023/10/13 02:33:21;;;;;;;4.40;3.33;;;18.10;99.90;;;18.55;nan;100505.00;4914217;29;20673;-66
2023/10/13 02:35:55;;;;;;;6.10;3.00;;;18.10;99.90;;;18.52;nan;100495.59;4915994;29;20645;-68
2023/10/13 02:38:58;;;;;;;3.63;3.30;;;18.10;99.90;;;18.51;nan;100507.16;4907526;29;20670;-68
2023/10/13 02:41:25;;;;;;;3.30;2.47;;;18.10;99.90;;;18.52;nan;100498.25;4908523;29;21356;-67
2023/10/13 02:43:54;;;;;;;4.83;3.50;;;18.10;99.90;;;18.47;nan;100489.97;4910418;29;22123;-68
2023/10/13 02:46:22;;;;;;;6.80;4.00;;;18.10;99.90;;;18.43;nan;100493.91;4909778;29;20701;-68
2023/10/13 02:48:53;;;;;;;4.37;3.07;;;18.10;99.90;;;18.35;nan;100488.63;4914033;29;20665;-67
2023/10/13 02:51:25;;;;;;;2.90;2.50;;;18.00;99.90;;;18.32;nan;100485.47;4914667;29;20649;-67
2023/10/13 02:53:52;;;;;;;4.03;3.00;;;17.90;99.90;;;18.28;nan;100477.03;4910395;29;20673;-67
2023/10/13 02:56:22;;;;;;;12.37;3.80;;;17.90;99.90;;;18.25;nan;100472.06;4911174;29;20654;-68
2023/10/13 02:58:56;;;;;;;4.50;3.10;;;17.90;99.90;;;18.25;nan;100473.91;4906625;29;21109;-68
2023/10/13 03:01:27;;;;;;;16.33;4.00;;;17.90;99.90;;;18.23;nan;100479.34;4906235;29;20638;-68
2023/10/13 03:03:55;;;;;;;5.80;3.50;;;17.80;99.90;;;18.24;nan;100477.53;4914478;29;20642;-68
2023/10/13 03:06:31;;;;;;;6.43;3.27;;;17.80;99.90;;;18.25;nan;100469.44;4913118;29;20656;-68
2023/10/13 03:09:13;;;;;;;4.77;3.07;;;17.90;99.90;;;18.28;nan;100469.13;4911304;29;20684;-68
2023/10/13 03:11:50;;;;;;;3.40;2.90;;;17.80;99.90;;;18.31;nan;100468.81;4915160;29;20669;-67
2023/10/13 03:14:31;;;;;;;4.93;2.90;;;17.90;99.90;;;18.37;nan;100469.97;4905685;29;21104;-67
2023/10/13 03:17:14;;;;;;;3.00;2.70;;;18.00;99.90;;;18.37;nan;100468.16;4921785;29;21279;-68
2023/10/13 03:19:49;;;;;;;2.90;2.70;;;18.00;99.90;;;18.38;nan;100455.75;4910056;29;20668;-69
2023/10/13 03:22:18;;;;;;;11.80;2.97;;;17.90;99.90;;;18.41;nan;100458.06;4915101;29;21077;-67
2023/10/13 03:24:46;;;;;;;2.87;2.43;;;18.00;99.90;;;18.44;nan;100452.50;4908647;29;20646;-67
2023/10/13 03:27:17;;;;;;;4.00;3.07;;;18.00;99.90;;;18.44;nan;100448.03;4898710;29;20649;-68
2023/10/13 03:29:54;;;;;;;2.73;2.50;;;18.00;99.90;;;18.46;nan;100456.59;4894503;29;20705;-68
2023/10/13 03:32:21;;;;;;;3.17;2.67;;;18.00;99.90;;;18.50;nan;100454.47;4910323;29;20637;-66
2023/10/13 03:37:40;;;;;;;6.30;3.27;;;18.10;99.90;;;18.55;nan;100450.34;4913603;29;21195;-68
2023/10/13 03:43:06;;;;;;;3.30;2.87;;;18.20;99.90;;;18.66;nan;100435.97;4912549;29;21231;-67
2023/10/13 03:45:42;;;;;;;3.00;2.70;;;18.20;99.90;;;18.72;nan;100434.50;4908134;29;20640;-67
2023/10/13 03:51:08;;;;;;;2.47;2.27;;;18.30;99.90;;;18.80;nan;100422.09;4927388;29;20642;-67
2023/10/13 03:53:52;;;;;;;10.17;2.50;;;18.30;99.90;;;18.83;nan;100423.53;4912803;29;20673;-66
2023/10/13 03:56:26;;;;;;;13.80;2.57;;;18.40;99.90;;;18.85;nan;100418.91;4911910;29;21046;-67
2023/10/13 03:59:22;;;;;;;4.43;2.70;;;18.40;99.90;;;18.83;nan;100411.16;4913014;29;20668;-67
2023/10/13 04:07:14;;;;;;;2.17;2.00;;;18.40;99.90;;;18.84;nan;100410.19;4911678;29;21008;-67
2023/10/13 04:17:33;;;;;;;4.27;2.30;;;18.40;99.90;;;18.86;nan;100413.47;4906365;29;20643;-68
2023/10/13 04:25:35;;;;;;;3.27;2.37;;;18.40;99.90;;;18.92;nan;100411.97;4911724;29;20645;-68
2023/10/13 04:36:14;;;;;;;2.50;1.50;;;18.60;99.90;;;19.08;nan;100396.88;4904021;29;20638;-68
2023/10/13 04:39:09;;;;;;;2.93;2.70;;;18.70;99.90;;;19.06;nan;100388.28;4911688;29;20668;-69
2023/10/13 04:54:54;;;;;;;7.77;2.43;;;18.70;99.90;;;19.05;nan;100383.19;4911807;29;21246;-69
2023/10/13 04:57:34;;;;;;;2.23;1.80;;;18.60;99.90;;;19.04;nan;100378.88;4912667;29;20704;-67
2023/10/13 05:46:49;;;;;;;3.10;2.77;;;18.00;99.90;;;18.40;nan;100348.94;4909454;29;21268;-67
2023/10/13 05:51:57;;;;;;;3.10;2.80;;;17.90;99.90;;;18.40;nan;100356.03;4905565;29;21057;-69
2023/10/13 06:30:56;;;;;;;4.50;3.40;;;18.70;99.90;;;19.50;nan;100362.19;4915973;29;21203;-68
2023/10/13 06:33:28;;;;;;;3.87;2.60;;;18.90;99.90;;;19.61;nan;100368.91;4915102;29;20641;-67
2023/10/13 06:35:58;;;;;;;4.37;2.20;;;19.10;99.90;;;19.69;nan;100372.31;4918562;29;20637;-69
2023/10/13 06:38:30;;;;;;;3.13;2.70;;;19.20;99.90;;;19.83;nan;100368.91;4918464;29;20661;-69
2023/10/13 06:40:57;;;;;;;2.23;2.03;;;19.30;99.90;;;20.01;nan;100376.56;4930875;29;20645;-68
2023/10/13 06:43:25;;;;;;;2.77;2.60;;;19.50;99.90;;;20.27;nan;100379.72;4910923;29;20641;-67
2023/10/13 06:46:03;;;;;;;4.20;3.03;;;19.80;99.90;;;20.58;nan;100368.97;4917491;29;20649;-68
2023/10/13 06:48:34;;;;;;;8.20;2.70;;;20.00;99.90;;;20.99;nan;100372.84;4914852;29;20669;-68
2023/10/13 06:51:17;;;;;;;6.00;3.33;;;20.40;99.90;;;21.40;nan;100374.00;4914475;29;20643;-68
2023/10/13 06:53:48;;;;;;;3.70;2.77;;;20.80;99.90;;;21.74;nan;100370.75;4910802;29;21296;-68
2023/10/13 06:56:22;;;;;;;6.17;3.80;;;21.20;99.90;;;22.00;nan;100375.53;4916704;29;21035;-68
2023/10/13 06:58:49;;;;;;;5.67;3.23;;;21.50;99.90;;;22.14;nan;100370.16;4915961;29;20662;-68
2023/10/13 07:01:21;;;;;;;5.70;3.27;;;21.70;99.90;;;22.49;nan;100378.22;4917820;29;21029;-69
2023/10/13 07:03:52;;;;;;;3.10;2.60;;;22.00;99.90;;;23.00;nan;100375.06;4910606;29;20703;-68
2023/10/13 07:06:20;;;;;;;3.97;2.77;;;22.50;99.90;;;23.61;nan;100373.34;4930066;29;20650;-69
2023/10/13 07:08:51;;;;;;;3.27;2.97;;;23.10;99.90;;;24.25;nan;100370.19;4914783;29;20665;-69
2023/10/13 07:11:38;;;;;;;6.00;3.23;;;23.80;99.90;;;24.90;nan;100371.97;4913332;29;20639;-67
2023/10/13 07:14:11;;;;;;;4.83;3.67;;;24.60;99.90;;;25.18;nan;100372.50;4920182;29;21635;-68
2023/10/13 07:16:58;;;;;;;6.93;2.87;;;25.00;99.90;;;25.67;nan;100370.06;4909494;29;20638;-67
2023/10/13 07:19:28;;;;;;;2.70;2.47;;;25.40;99.70;;;26.17;nan;100377.16;4908183;29;20670;-68
2023/10/13 07:22:19;;;;;;;2.83;2.60;;;26.00;98.60;;;26.35;nan;100379.06;4906930;29;20642;-68
2023/10/13 07:24:48;;;;;;;3.10;2.83;;;26.30;97.50;;;26.85;nan;100374.53;4907988;29;20649;-68
2023/10/13 07:27:24;;;;;;;4.90;3.33;;;26.80;96.40;;;27.03;nan;100369.16;4913318;29;20657;-68
2023/10/13 07:30:14;;;;;;;3.13;2.87;;;27.00;95.50;;;27.20;nan;100374.72;4915877;29;20626;-68
2023/10/13 07:32:51;;;;;;;6.80;3.37;;;27.10;95.10;;;27.95;nan;100370.66;4912504;29;20652;-68
2023/10/13 07:35:20;;;;;;;5.43;3.30;;;27.80;93.80;;;28.54;nan;100373.22;4901723;29;21247;-67
2023/10/13 07:37:52;;;;;;;7.93;3.00;;;28.50;92.40;;;29.18;nan;100371.47;4912654;29;20668;-68
2023/10/13 07:43:00;;;;;;;3.47;3.17;;;29.40;90.00;;;29.87;nan;100371.22;4914169;29;20726;-67
2023/10/13 07:45:36;;;;;;;4.13;3.80;;;29.90;87.60;;;30.51;nan;100362.63;4905509;29;20641;-68
2023/10/13 07:48:45;;;;;;;3.93;3.40;;;30.50;84.70;;;30.82;nan;100363.03;4927193;29;20687;-68
2023/10/13 07:51:15;;;;;;;4.83;3.50;;;30.80;82.50;;;31.42;nan;100363.03;4911222;29;20641;-68
2023/10/13 07:53:44;;;;;;;6.40;3.70;;;31.40;80.00;;;31.67;nan;100358.72;4908769;29;21204;-68
2023/10/13 07:56:11;;;;;;;5.83;3.20;;;31.80;77.40;;;30.32;nan;100355.88;4911624;29;21220;-68
2023/10/13 07:59:00;;;;;;;3.50;3.20;;;30.70;77.10;;;29.35;nan;100357.03;4909549;29;20663;-67
2023/10/13 08:01:30;;;;;;;3.80;2.07;;;29.50;79.80;;;28.58;nan;100352.16;4932201;29;20709;-67
2023/10/13 08:04:11;;;;;;;2.93;2.70;;;28.80;80.50;;;28.42;nan;100353.63;4908613;29;20645;-67
2023/10/13 08:06:40;;;;;;;1.80;1.70;;;28.30;82.50;;;27.74;nan;100349.72;4902780;29;20633;-67
2023/10/13 08:09:08;;;;;;;4.80;3.03;;;27.70;83.20;;;26.92;nan;100354.66;4925124;29;20670;-67
2023/10/13 08:11:37;;;;;;;3.67;3.27;;;26.90;85.70;;;26.32;nan;100351.94;4910069;29;20638;-67
2023/10/13 08:14:16;;;;;;;5.70;3.53;;;26.20;88.20;;;26.37;nan;100344.06;4913854;29;20630;-68
2023/10/13 08:17:02;;;;;;;4.20;2.70;;;26.10;89.00;;;26.29;nan;100347.84;4913775;29;20646;-67
2023/10/13 08:19:39;;;;;;;4.90;3.30;;;26.10;88.50;;;26.09;nan;100349.84;4913468;29;20669;-68
2023/10/13 08:27:48;;;;;;;1.73;1.30;;;28.00;85.50;;;29.88;nan;100349.44;4915077;29;20733;-68
2023/10/13 08:30:52;;;;;;;8.23;1.97;;;29.50;82.20;;;31.45;nan;100351.75;4910555;29;20668;-69
2023/10/13 08:33:18;;;;;;;2.20;2.00;;;31.10;78.10;;;32.58;nan;100351.44;4907240;29;20682;-68
2023/10/13 08:38:43;;;;;;;3.67;2.70;;;33.00;72.20;;;33.18;nan;100361.78;4907723;29;20682;-68
2023/10/13 08:44:03;;;;;;;3.10;2.40;;;33.80;69.10;;;35.03;nan;100352.91;4923836;29;20642;-68
2023/10/13 08:46:51;;;;;;;2.10;1.90;;;34.80;66.70;;;35.68;nan;100359.09;4910472;29;20637;-69
2023/10/13 08:49:23;;;;;;;2.43;1.93;;;35.50;64.40;;;36.47;nan;100347.91;4907856;29;20697;-69
2023/10/13 08:52:05;;;;;;;3.40;2.23;;;36.50;61.80;;;35.49;nan;100339.97;4909662;29;20653;-69
2023/10/13 08:54:45;;;;;;;1.03;1.03;;;35.80;61.50;;;34.50;nan;100337.31;4919809;29;20723;-69
2023/10/13 09:00:26;;;;;;;1.87;1.77;;;34.40;62.80;;;33.98;nan;100334.91;4924000;29;21226;-68
2023/10/13 09:03:22;;;;;;;2.37;2.17;;;33.90;63.30;;;33.74;nan;100335.69;4909832;29;20654;-69
2023/10/13 09:06:09;;;;;;;1.67;1.57;;;33.70;63.80;;;34.32;nan;100318.94;4911191;29;20645;-68
2023/10/13 09:11:26;;;;;;;3.53;2.47;;;34.50;62.60;;;35.87;nan;100319.34;4911531;29;20881;-69
2023/10/13 09:13:53;;;;;;;9.83;2.20;;;35.40;61.60;;;36.24;nan;100303.28;4907717;29;20654;-68
2023/10/13 09:16:59;;;;;;;4.03;2.30;;;36.10;59.90;;;36.42;nan;100299.03;4910589;29;20685;-68
2023/10/13 09:19:11;;;;;;;11.10;2.67;;;36.20;59.30;;;36.27;nan;100302.69;4910877;29;21058;-68
2023/10/13 09:24:27;;;;;;;2.23;2.03;;;36.50;58.40;;;37.61;nan;100292.31;4907455;29;20697;-67
2023/10/13 09:26:56;;;;;;;1.90;1.80;;;37.10;57.60;;;37.23;nan;100285.25;4905371;29;20646;-67
2023/10/13 09:29:24;;;;;;;2.60;2.03;;;36.90;57.30;;;36.76;nan;100286.13;4908445;29;20674;-69
2023/10/13 09:32:03;;;;;;;2.10;2.00;;;36.40;57.80;;;35.46;nan;100269.16;4911785;29;20649;-67
2023/10/13 09:34:33;;;;;;;3.67;2.47;;;35.20;58.60;;;35.06;nan;100262.88;4906210;29;20646;-68
2023/10/13 09:37:04;;;;;;;3.33;2.00;;;34.60;59.60;;;34.51;nan;100259.59;4905092;29;20618;-68
2023/10/13 09:39:44;;;;;;;6.77;6.30;;;34.10;60.30;;;33.54;nan;100255.34;4910510;29;21223;-68
2023/10/13 09:42:13;;;;;;;183.60;171.80;;;33.10;61.30;;;32.27;nan;100252.38;4900724;29;20657;-69
2023/10/13 09:44:49;;;;;;;3.03;2.27;;;31.90;63.50;;;31.26;nan;100248.84;4904128;29;20635;-68
2023/10/13 09:47:24;;;;;;;2.87;1.57;;;30.90;65.20;;;30.38;nan;100239.16;4908771;29;20736;-67
2023/10/13 09:50:04;;;;;;;1.37;1.27;;;29.90;66.90;;;29.21;nan;100229.41;4904383;29;20646;-66
2023/10/13 09:52:31;;;;;;;1.60;1.50;;;28.90;68.50;;;28.50;nan;100235.19;4907352;29;20792;-69
2023/10/13 09:55:21;;;;;;;3.60;1.80;;;28.10;70.50;;;27.98;nan;100236.16;4925532;29;21045;-68
2023/10/13 09:58:04;;;;;;;2.80;1.77;;;27.60;72.00;;;27.42;nan;100234.75;4920998;29;20673;-68
2023/10/13 10:00:48;;;;;;;2.73;2.20;;;27.00;73.40;;;27.06;nan;100228.66;4908850;29;20638;-68
2023/10/13 10:03:29;;;;;;;3.53;1.97;;;26.60;74.70;;;26.85;nan;100225.41;4902715;29;20709;-68
2023/10/13 10:06:03;;;;;;;1.90;1.67;;;26.40;75.80;;;26.67;nan;100230.78;4923779;29;20645;-69
2023/10/13 10:08:34;;;;;;;2.00;1.87;;;26.10;76.90;;;26.63;nan;100239.47;4910832;29;20728;-68
2023/10/13 10:11:16;;;;;;;2.60;1.50;;;26.00;77.20;;;26.47;nan;100235.53;4927327;29;20649;-68
2023/10/13 10:13:57;;;;;;;1.13;0.83;;;25.90;77.90;;;26.53;nan;100231.97;4911986;29;20649;-68
2023/10/13 10:16:59;;;;;;;1.87;1.60;;;25.90;78.60;;;26.79;nan;100225.53;4907590;29;21030;-67
2023/10/13 10:19:30;;;;;;;1.90;1.27;;;26.10;78.70;;;27.11;nan;100224.25;4913231;29;20716;-67
2023/10/13 10:22:13;;;;;;;1.83;1.27;;;26.60;76.90;;;27.72;nan;100231.19;4911306;29;20650;-67
2023/10/13 10:24:43;;;;;;;3.10;1.77;;;27.30;75.60;;;28.73;nan;100237.84;4914724;29;20705;-67
2023/10/13 10:27:16;;;;;;;2.13;1.90;;;28.10;73.90;;;29.40;nan;100230.81;4910728;29;20641;-67
2023/10/13 10:29:54;;;;;;;4.30;3.20;;;28.70;72.40;;;29.31;nan;100236.81;4913812;29;20634;-67
2023/10/13 10:32:21;;;;;;;2.00;1.37;;;28.60;72.30;;;28.93;nan;100230.19;4906450;29;20641;-67
2023/10/13 10:34:48;;;;;;;0.80;0.80;;;28.30;72.70;;;28.38;nan;100231.72;4921061;29;20712;-68
2023/10/13 10:37:16;;;;;;;2.77;2.53;;;27.90;73.00;;;27.84;nan;100223.97;4906406;29;20647;-66
2023/10/13 10:39:46;;;;;;;1.23;1.13;;;27.30;74.00;;;27.52;nan;100220.78;4898239;29;20716;-67
2023/10/13 10:42:29;;;;;;;1.50;1.40;;;27.00;75.10;;;27.18;nan;100218.81;4904977;29;20646;-68
2023/10/13 10:44:57;;;;;;;1.60;1.50;;;26.70;75.60;;;26.94;nan;100203.72;4906572;29;20642;-67
2023/10/13 10:47:30;;;;;;;4.40;2.07;;;26.40;76.20;;;26.80;nan;100205.72;4909393;29;20645;-66
2023/10/13 10:50:00;;;;;;;2.23;2.00;;;26.20;76.90;;;26.76;nan;100201.88;4913653;29;20720;-68
2023/10/13 10:52:27;;;;;;;2.50;1.70;;;26.10;77.70;;;26.80;nan;100190.50;4907527;29;20644;-67
2023/10/13 10:55:00;;;;;;;1.33;1.13;;;26.20;78.10;;;26.86;nan;100199.47;4910868;29;20685;-68
2023/10/13 10:57:36;;;;;;;1.67;1.57;;;26.20;78.20;;;26.75;nan;100187.66;4909028;29;21198;-67
2023/10/13 11:00:11;;;;;;;2.97;2.00;;;26.10;78.00;;;26.69;nan;100187.72;4915068;29;20657;-68
2023/10/13 11:02:38;;;;;;;2.13;2.00;;;26.10;78.10;;;26.72;nan;100177.44;4912323;29;20664;-67
2023/10/13 11:05:09;;;;;;;2.50;1.53;;;26.10;78.50;;;26.75;nan;100178.81;4910030;29;20684;-68
2023/10/13 11:07:36;;;;;;;1.60;1.50;;;26.10;78.60;;;26.76;nan;100173.25;4896396;29;21222;-68
2023/10/13 11:10:17;;;;;;;5.30;2.50;;;26.10;78.40;;;26.75;nan;100171.59;4906276;29;21030;-67
2023/10/13 11:12:55;;;;;;;3.00;2.63;;;26.10;78.60;;;26.74;nan;100177.19;4911734;29;20650;-68
2023/10/13 11:15:22;;;;;;;6.93;3.40;;;26.10;78.80;;;26.76;nan;100167.09;4907228;29;20666;-68
2023/10/13 11:17:58;;;;;;;3.87;2.93;;;26.10;79.10;;;26.76;nan;100170.59;4929202;29;20669;-68
2023/10/13 11:20:25;;;;;;;3.37;3.00;;;26.10;79.00;;;26.81;nan;100154.63;4908690;29;20649;-68
2023/10/13 11:22:53;;;;;;;4.53;3.60;;;26.20;79.70;;;26.89;nan;100145.50;4911899;29;20638;-68
2023/10/13 11:25:34;;;;;;;2.60;2.40;;;26.20;80.20;;;26.95;nan;100152.59;4908119;29;20734;-67
2023/10/13 11:28:28;;;;;;;2.63;2.43;;;26.30;79.50;;;27.05;nan;100146.69;4913258;29;21629;-67
2023/10/13 11:30:58;;;;;;;2.70;2.50;;;26.30;79.50;;;27.08;nan;100140.88;4906290;29;20651;-67
2023/10/13 11:33:29;;;;;;;3.33;2.87;;;26.40;79.20;;;27.20;nan;100137.19;4911968;29;21356;-68
2023/10/13 11:35:58;;;;;;;5.57;2.73;;;26.50;79.10;;;27.26;nan;100138.94;4913864;29;20740;-68
2023/10/13 11:38:49;;;;;;;2.53;2.33;;;26.60;78.60;;;27.28;nan;100138.72;4914652;29;20670;-67
2023/10/13 11:41:20;;;;;;;2.53;2.30;;;26.60;78.60;;;27.29;nan;100133.13;4910748;29;20661;-67
2023/10/13 11:43:52;;;;;;;4.40;3.50;;;26.60;79.00;;;27.30;nan;100121.34;4905290;29;20634;-68
2023/10/13 11:51:44;;;;;;;4.20;3.63;;;26.50;77.70;;;27.32;nan;100118.47;4910023;29;21160;-65
2023/10/13 11:54:19;;;;;;;4.20;2.63;;;26.60;77.70;;;27.31;nan;100114.97;4924992;29;20650;-69
2023/10/13 11:56:48;;;;;;;2.13;2.03;;;26.60;77.30;;;27.26;nan;100112.16;4922476;29;20691;-69
2023/10/13 11:59:17;;;;;;;3.50;2.60;;;26.60;77.40;;;27.24;nan;100111.56;4912424;29;20657;-68
2023/10/13 12:04:51;;;;;;;4.17;2.37;;;26.50;77.30;;;27.31;nan;100101.56;4929896;29;20724;-69
2023/10/13 12:07:20;;;;;;;2.93;2.50;;;26.60;77.20;;;27.29;nan;100106.34;4908089;29;20635;-69
2023/10/13 12:12:25;;;;;;;2.20;1.93;;;26.50;78.10;;;27.18;nan;100093.75;4909702;29;20643;-69
2023/10/13 12:14:54;;;;;;;3.40;2.50;;;26.50;78.00;;;27.15;nan;100088.88;4905663;29;21260;-66
2023/10/13 12:17:31;;;;;;;2.50;2.30;;;26.50;77.70;;;27.26;nan;100087.25;4911392;29;21219;-69
2023/10/13 12:20:04;;;;;;;2.63;2.23;;;26.50;77.40;;;27.36;nan;100079.47;4911653;29;20673;-68
2023/10/13 12:22:35;;;;;;;4.93;2.97;;;26.60;77.60;;;27.42;nan;100071.34;4911889;29;20646;-68
2023/10/13 12:25:24;;;;;;;3.53;2.43;;;26.70;77.00;;;27.48;nan;100065.03;4913492;29;21239;-67
2023/10/13 12:27:57;;;;;;;6.20;3.43;;;26.70;77.20;;;27.56;nan;100062.00;4909041;29;20791;-68
2023/10/13 12:33:27;;;;;;;3.00;2.73;;;26.90;77.10;;;27.61;nan;100053.25;4880626;29;20650;-67
2023/10/13 12:52:16;;;;;;;0.80;0.80;;;26.80;76.20;;;27.59;nan;100026.69;4906858;29;20716;-68
2023/10/13 12:55:29;;;;;;;1.60;1.50;;;26.90;75.70;;;27.62;nan;100034.25;4922196;29;20647;-69
2023/10/13 12:57:32;;;;;;;3.57;1.90;;;26.90;76.00;;;27.60;nan;100022.97;4906749;29;21329;-68
2023/10/13 12:59:59;;;;;;;1.60;1.27;;;26.90;76.20;;;27.57;nan;100025.31;4913031;29;20638;-68
2023/10/13 13:02:27;;;;;;;2.63;1.70;;;26.80;76.10;;;27.56;nan;100027.16;4906604;29;20638;-69
2023/10/13 13:05:05;;;;;;;0.87;0.80;;;26.80;76.00;;;27.63;nan;100024.34;4901629;29;20725;-69
2023/10/13 13:07:43;;;;;;;1.27;1.17;;;26.90;75.30;;;27.66;nan;100018.53;4912499;29;20676;-67
2023/10/13 13:10:16;;;;;;;2.53;1.67;;;26.90;74.50;;;27.71;nan;100017.84;4905800;29;20654;-69
2023/10/13 13:12:43;;;;;;;1.03;0.90;;;27.00;74.80;;;27.76;nan;100009.88;4907712;29;20642;-68
2023/10/13 13:15:11;;;;;;;0.40;0.40;;;27.00;74.90;;;27.78;nan;100005.09;4911101;29;20642;-69
2023/10/13 13:17:39;;;;;;;1.40;1.30;;;27.00;75.10;;;27.82;nan;100007.06;4927502;29;20775;-69
2023/10/13 13:20:27;;;;;;;1.60;1.50;;;27.10;74.60;;;27.85;nan;99987.03;4905825;29;21048;-69
2023/10/13 13:22:55;;;;;;;1.20;1.10;;;27.10;74.50;;;27.86;nan;99989.47;4910920;29;20638;-68
2023/10/13 13:25:30;;;;;;;1.10;1.00;;;27.10;74.20;;;27.87;nan;99984.91;4912283;29;20642;-67
2023/10/13 13:27:58;;;;;;;3.17;1.30;;;27.10;74.30;;;27.86;nan;99991.31;4908675;29;20670;-69
2023/10/13 13:30:32;;;;;;;2.33;1.90;;;27.10;74.50;;;27.91;nan;99992.25;4911939;29;20638;-67
2023/10/13 13:33:03;;;;;;;1.83;1.70;;;27.10;74.10;;;27.78;nan;99989.84;4913055;29;20628;-68
2023/10/13 13:35:34;;;;;;;2.30;1.73;;;27.10;74.70;;;27.76;nan;99985.75;4904783;29;20638;-68
2023/10/13 13:40:49;;;;;;;0.80;0.80;;;27.00;74.30;;;27.85;nan;99977.13;4908815;29;20649;-68
2023/10/13 13:43:31;;;;;;;1.23;1.13;;;27.10;74.00;;;27.91;nan;99972.66;4908569;29;21311;-65
2023/10/13 13:46:02;;;;;;;2.57;1.70;;;27.10;73.60;;;27.91;nan;99969.97;4907264;29;20650;-67
2023/10/13 13:48:30;;;;;;;0.70;0.70;;;27.20;73.20;;;27.95;nan;99971.13;4911332;29;20677;-67
2023/10/13 13:51:04;;;;;;;0.47;0.47;;;27.20;73.10;;;27.95;nan;99963.09;4906152;29;20646;-68
2023/10/13 13:53:37;;;;;;;1.90;1.50;;;27.20;73.00;;;27.92;nan;99952.84;4909153;29;20642;-66
2023/10/13 13:56:05;;;;;;;1.60;1.37;;;27.20;73.20;;;27.84;nan;99954.03;4911877;29;21109;-68
2023/10/13 13:58:32;;;;;;;3.10;1.70;;;27.10;73.40;;;27.85;nan;99946.81;4905297;29;20673;-68
2023/10/13 14:01:12;;;;;;;4.57;0.93;;;27.10;73.60;;;27.76;nan;99950.91;4905135;29;20649;-67
2023/10/13 14:03:46;;;;;;;2.87;1.53;;;27.00;73.00;;;27.78;nan;99938.09;4906920;29;20646;-68
2023/10/13 14:06:29;;;;;;;1.60;1.50;;;27.00;72.60;;;27.77;nan;99936.47;4911292;29;20641;-67